Prague, Prague Vaclav Havel Airport (LKPR)

NamePrague Vaclav Havel Airport
CityPrague
CountryCzech Republic
ICAOLKPR
IATAPRG
Altitude1247 feet
CoordinatesGoogle Map
Live Air TrafficLiveATC.net
METARLKPR 230830Z 14004KT 100V190 CAVOK 22/13 Q1019 NOSIG
2024-07-23 08:30:00 Wind: Southeast (140°) 2.06 m/s - Visibility: > 10000 m - Weather: CAVOK - Temperature: 22 °C - Dew point: 13 °C - Humidity: 56.8% - Pressure: 1019 hPa

Sorry, no flights used the airport in this database.